createdAt,value
2022-08-28T00:02:24.424Z,100520.78
2022-08-28T00:07:25.922Z,100522.53
2022-08-28T00:12:27.529Z,100529.09
2022-08-28T00:17:28.967Z,100531.28
2022-08-28T00:22:30.549Z,100530.56
2022-08-28T00:27:32.010Z,100539.72
2022-08-28T00:32:33.467Z,100540.34
2022-08-28T00:37:35.836Z,100543.38
2022-08-28T00:42:37.304Z,100543.78
2022-08-28T00:47:38.791Z,100541.81
2022-08-28T00:52:40.589Z,100537.47
2022-08-28T00:57:54.833Z,100533.75
2022-08-28T01:02:57.266Z,100532.53
2022-08-28T01:07:59.413Z,100535.44
2022-08-28T01:13:02.047Z,100535.06
2022-08-28T01:18:08.428Z,100535.41
2022-08-28T01:23:22.337Z,100533.84
2022-08-28T01:28:23.811Z,100528.13
2022-08-28T01:33:27.946Z,100533.47
2022-08-28T01:38:29.930Z,100541.09
2022-08-28T01:43:31.386Z,100539.50
2022-08-28T01:48:35.546Z,100543.34
2022-08-28T01:53:37.623Z,100541.69
2022-08-28T01:58:39.567Z,100548.69
2022-08-28T02:03:41.530Z,100549.91
2022-08-28T02:08:43.427Z,100551.03
2022-08-28T02:13:44.895Z,100543.00
2022-08-28T02:18:47.025Z,100548.66
2022-08-28T02:23:48.574Z,100545.03
2022-08-28T02:28:50.084Z,100539.41
2022-08-28T02:33:51.566Z,100536.50
2022-08-28T02:38:57.563Z,100541.28
2022-08-28T02:43:59.425Z,100545.84
2022-08-28T02:49:00.877Z,100548.03
2022-08-28T02:54:02.521Z,100548.53
2022-08-28T02:59:04.058Z,100545.97
2022-08-28T03:04:05.738Z,100540.41
2022-08-28T03:09:07.199Z,100541.78
2022-08-28T03:14:08.695Z,100541.69
2022-08-28T03:19:10.175Z,100549.78
2022-08-28T03:24:11.654Z,100545.97
2022-08-28T03:29:17.232Z,100545.66
2022-08-28T03:34:18.851Z,100543.72
2022-08-28T03:39:20.331Z,100543.00
2022-08-28T03:44:21.861Z,100539.25
2022-08-28T03:49:23.368Z,100536.09
2022-08-28T03:54:24.879Z,100538.84
2022-08-28T03:59:31.695Z,100538.25
2022-08-28T04:04:35.135Z,100540.56
2022-08-28T04:09:36.605Z,100544.38
2022-08-28T04:14:38.348Z,100551.72
2022-08-28T04:19:39.805Z,100555.44
2022-08-28T04:24:41.233Z,100569.00
2022-08-28T04:29:42.701Z,100562.66
2022-08-28T04:34:44.208Z,100562.34
2022-08-28T04:39:45.685Z,100564.38
2022-08-28T04:44:48.656Z,100574.25
2022-08-28T04:49:50.124Z,100581.13
2022-08-28T04:54:51.667Z,100584.28
2022-08-28T04:59:53.183Z,100582.03
2022-08-28T05:04:54.775Z,100582.22
2022-08-28T05:09:56.371Z,100581.50
2022-08-28T05:14:57.811Z,100588.59
2022-08-28T05:19:59.255Z,100589.72
2022-08-28T05:25:00.789Z,100586.69
2022-08-28T05:30:02.451Z,100600.88
2022-08-28T05:35:04.250Z,100610.31
2022-08-28T05:40:06.392Z,100619.94
2022-08-28T05:45:08.607Z,100627.09
2022-08-28T05:50:11.404Z,100618.41
2022-08-28T05:55:13.188Z,100624.09
2022-08-28T06:00:15.049Z,100616.44
2022-08-28T06:05:16.516Z,100621.81
2022-08-28T06:10:17.981Z,100632.72
2022-08-28T06:15:20.669Z,100631.41
2022-08-28T06:20:22.110Z,100632.03
2022-08-28T06:25:23.606Z,100641.19
2022-08-28T06:30:25.062Z,100634.69
2022-08-28T06:35:26.541Z,100634.75
2022-08-28T06:40:28.063Z,100647.03
2022-08-28T06:45:29.571Z,100653.19
2022-08-28T06:50:31.000Z,100647.66
2022-08-28T06:55:32.484Z,100647.94
2022-08-28T07:00:35.925Z,100648.16
2022-08-28T07:05:37.491Z,100640.56
2022-08-28T07:10:38.993Z,100655.06
2022-08-28T07:15:41.935Z,100647.59
2022-08-28T07:20:44.349Z,100645.81
2022-08-28T07:25:45.833Z,100649.25
2022-08-28T07:30:57.235Z,100646.09
2022-08-28T07:36:00.489Z,100640.78
2022-08-28T07:41:01.955Z,100654.47
2022-08-28T07:46:06.942Z,100656.81
2022-08-28T07:51:09.214Z,100651.47
2022-08-28T07:56:11.213Z,100660.09
2022-08-28T08:01:12.779Z,100649.88
2022-08-28T08:06:14.289Z,100656.91
2022-08-28T08:11:16.977Z,100662.38
2022-08-28T08:16:20.031Z,100663.47
2022-08-28T08:21:22.217Z,100665.88
2022-08-28T08:26:25.925Z,100659.72
2022-08-28T08:31:30.585Z,100661.59
2022-08-28T08:36:34.637Z,100661.81
2022-08-28T08:41:44.129Z,100652.81
2022-08-28T08:47:11.781Z,100655.47
2022-08-28T08:52:31.120Z,100661.44
2022-08-28T08:57:36.604Z,100666.56
2022-08-28T09:02:44.991Z,100667.78
2022-08-28T09:07:55.751Z,100666.06
2022-08-28T09:13:12.944Z,100658.34
2022-08-28T09:18:24.623Z,100666.97
2022-08-28T09:23:29.922Z,100668.69
2022-08-28T09:28:41.882Z,100662.44
2022-08-28T09:33:46.571Z,100673.00
2022-08-28T09:39:03.369Z,100667.03
2022-08-28T09:44:04.851Z,100669.72
2022-08-28T09:49:13.452Z,100672.66
2022-08-28T09:54:22.407Z,100665.50
2022-08-28T09:59:26.135Z,100671.03
2022-08-28T10:04:45.955Z,100669.38
2022-08-28T10:10:06.540Z,100661.09
2022-08-28T10:15:14.931Z,100653.84
2022-08-28T10:20:31.583Z,100651.34
2022-08-28T10:25:51.541Z,100654.88
2022-08-28T10:31:22.558Z,100657.88
2022-08-28T10:36:33.925Z,100653.34
2022-08-28T10:41:59.449Z,100652.03
2022-08-28T10:47:03.405Z,100649.22
2022-08-28T10:52:12.274Z,100648.72
2022-08-28T10:57:36.070Z,100645.25
2022-08-28T11:02:42.052Z,100654.22
2022-08-28T11:07:47.661Z,100646.56
2022-08-28T11:12:52.050Z,100639.63
2022-08-28T11:18:18.910Z,100634.25
2022-08-28T11:23:52.419Z,100645.84
2022-08-28T11:28:53.898Z,100643.13
2022-08-28T11:33:55.404Z,100637.75
2022-08-28T11:38:57.443Z,100636.78
2022-08-28T11:44:09.077Z,100646.22
2022-08-28T11:49:32.092Z,100643.25
2022-08-28T11:54:55.299Z,100638.06
2022-08-28T12:00:08.340Z,100631.34
2022-08-28T12:05:15.890Z,100638.19
2022-08-28T12:10:20.114Z,100638.19
2022-08-28T12:15:27.457Z,100638.09
2022-08-28T12:20:34.614Z,100633.66
2022-08-28T12:25:39.310Z,100632.22
2022-08-28T12:31:01.487Z,100633.59
2022-08-28T12:36:04.698Z,100634.28
2022-08-28T12:41:14.634Z,100631.59
2022-08-28T12:46:22.198Z,100639.97
2022-08-28T12:51:35.370Z,100632.88
2022-08-28T12:56:38.825Z,100627.00
2022-08-28T13:01:40.435Z,100624.56
2022-08-28T13:06:42.015Z,100617.75
2022-08-28T13:11:50.902Z,100619.78
2022-08-28T13:16:52.449Z,100615.59
2022-08-28T13:22:06.956Z,100608.56
2022-08-28T13:27:14.102Z,100600.16
2022-08-28T13:32:17.463Z,100590.00
2022-08-28T13:37:56.743Z,100579.91
2022-08-28T13:43:05.248Z,100586.91
2022-08-28T13:48:06.708Z,100577.38
2022-08-28T13:53:08.472Z,100580.06
2022-08-28T13:58:10.239Z,100586.91
2022-08-28T14:03:12.241Z,100577.97
2022-08-28T14:08:13.801Z,100584.63
2022-08-28T14:13:15.496Z,100585.25
2022-08-28T14:18:16.949Z,100574.81
2022-08-28T14:23:18.562Z,100577.94
2022-08-28T14:28:20.057Z,100573.63
2022-08-28T14:33:21.587Z,100571.22
2022-08-28T14:38:24.507Z,100579.94
2022-08-28T14:43:26.700Z,100572.91
2022-08-28T14:48:28.130Z,100574.28
2022-08-28T14:53:29.570Z,100574.31
2022-08-28T14:58:31.015Z,100573.25
2022-08-28T15:03:33.656Z,100572.50
2022-08-28T15:08:36.588Z,100568.19
2022-08-28T15:13:38.097Z,100574.19
2022-08-28T15:18:41.160Z,100576.56
2022-08-28T15:23:43.049Z,100572.28
2022-08-28T15:28:44.989Z,100568.63
2022-08-28T15:33:46.436Z,100564.13
2022-08-28T15:38:47.987Z,100565.38
2022-08-28T15:43:50.228Z,100562.69
2022-08-28T15:48:54.390Z,100560.63
2022-08-28T15:53:56.073Z,100553.63
2022-08-28T15:58:57.543Z,100567.09
2022-08-28T16:03:59.065Z,100557.34
2022-08-28T16:09:00.567Z,100561.69
2022-08-28T16:14:02.252Z,100559.22
2022-08-28T16:19:03.833Z,100566.50
2022-08-28T16:24:05.371Z,100564.63
2022-08-28T16:29:07.304Z,100564.03
2022-08-28T16:34:08.884Z,100569.84
2022-08-28T16:39:11.966Z,100564.28
2022-08-28T16:44:13.418Z,100560.34
2022-08-28T16:49:14.991Z,100566.56
2022-08-28T16:54:16.799Z,100564.50
2022-08-28T16:59:18.266Z,100568.25
2022-08-28T17:04:19.827Z,100560.38
2022-08-28T17:09:21.347Z,100569.13
2022-08-28T17:14:23.493Z,100570.75
2022-08-28T17:19:25.039Z,100565.34
2022-08-28T17:24:27.023Z,100573.00
2022-08-28T17:29:28.599Z,100581.91
2022-08-28T17:34:30.519Z,100586.06
2022-08-28T17:39:32.526Z,100582.94
2022-08-28T17:44:34.092Z,100583.34
2022-08-28T17:49:35.570Z,100594.91
2022-08-28T17:54:37.127Z,100595.84
2022-08-28T17:59:38.603Z,100599.34
2022-08-28T18:04:40.087Z,100606.13
2022-08-28T18:09:41.737Z,100601.09
2022-08-28T18:14:43.246Z,100605.53
2022-08-28T18:19:44.862Z,100605.94
2022-08-28T18:24:51.031Z,100613.50
2022-08-28T18:29:53.047Z,100620.47
2022-08-28T18:34:54.523Z,100631.78
2022-08-28T18:39:56.041Z,100637.59
2022-08-28T18:44:57.791Z,100651.53
2022-08-28T18:49:59.331Z,100649.81
2022-08-28T18:55:01.085Z,100660.38
2022-08-28T19:00:07.505Z,100665.03
2022-08-28T19:05:10.390Z,100677.53
2022-08-28T19:10:28.356Z,100690.31
2022-08-28T19:15:34.982Z,100698.00
2022-08-28T19:20:36.521Z,100701.38
2022-08-28T19:25:37.970Z,100709.22
2022-08-28T19:30:39.607Z,100715.41
2022-08-28T19:35:41.066Z,100717.44
2022-08-28T19:40:42.613Z,100714.66
2022-08-28T19:45:45.141Z,100719.94
2022-08-28T19:50:46.582Z,100729.44
2022-08-28T19:55:48.051Z,100739.53
2022-08-28T20:00:49.516Z,100751.38
2022-08-28T20:05:50.978Z,100756.19
2022-08-28T20:10:52.445Z,100762.88
2022-08-28T20:15:53.918Z,100768.88
2022-08-28T20:20:55.474Z,100776.59
2022-08-28T20:25:57.054Z,100770.00
2022-08-28T20:30:58.765Z,100770.97
2022-08-28T20:36:01.898Z,100773.81
2022-08-28T20:41:15.923Z,100779.19
2022-08-28T20:46:18.424Z,100784.47
2022-08-28T20:51:19.963Z,100785.31
2022-08-28T20:56:21.411Z,100783.50
2022-08-28T21:01:22.881Z,100788.53
2022-08-28T21:06:24.367Z,100794.56
2022-08-28T21:11:27.279Z,100799.22
2022-08-28T21:16:28.807Z,100805.13
2022-08-28T21:21:30.434Z,100808.78
2022-08-28T21:26:32.299Z,100811.16
2022-08-28T21:31:34.398Z,100813.94
2022-08-28T21:36:37.491Z,100823.66
2022-08-28T21:41:40.076Z,100821.84
2022-08-28T21:46:41.642Z,100823.66
2022-08-28T21:51:43.259Z,100822.78
2022-08-28T21:56:44.802Z,100835.63
2022-08-28T22:01:46.280Z,100830.13
2022-08-28T22:06:47.926Z,100841.50
2022-08-28T22:11:49.425Z,100852.09
2022-08-28T22:16:51.040Z,100848.09
2022-08-28T22:21:52.673Z,100856.75
2022-08-28T22:26:57.413Z,100862.69
2022-08-28T22:31:59.398Z,100857.00
2022-08-28T22:37:00.982Z,100867.03
2022-08-28T22:42:02.453Z,100865.88
2022-08-28T22:47:04.217Z,100861.03
2022-08-28T22:52:06.095Z,100864.34
2022-08-28T22:57:07.711Z,100864.13
2022-08-28T23:02:10.456Z,100857.00
2022-08-28T23:07:12.035Z,100865.78
2022-08-28T23:12:15.051Z,100871.69
2022-08-28T23:17:17.864Z,100864.09
2022-08-28T23:22:20.355Z,100860.03
2022-08-28T23:27:37.175Z,100861.44
2022-08-28T23:32:38.918Z,100869.88
2022-08-28T23:37:43.672Z,100856.78
2022-08-28T23:42:50.187Z,100864.06
2022-08-28T23:47:51.707Z,100860.41
2022-08-28T23:52:53.513Z,100854.31
2022-08-28T23:57:55.062Z,100853.72
